sensor_id;sensor_type;location;lat;lon;timestamp;temperature;humidity
23385;DHT22;11865;45.394;10.978;2023-04-01T00:00:35;9.10;99.90
23385;DHT22;11865;45.394;10.978;2023-04-01T00:03:02;9.10;99.90
23385;DHT22;11865;45.394;10.978;2023-04-01T00:05:30;9.00;99.90
23385;DHT22;11865;45.394;10.978;2023-04-01T00:07:58;8.90;99.90
23385;DHT22;11865;45.394;10.978;2023-04-01T00:10:26;8.90;99.90
23385;DHT22;11865;45.394;10.978;2023-04-01T00:12:53;8.90;99.90
23385;DHT22;11865;45.394;10.978;2023-04-01T00:15:21;9.00;99.90
23385;DHT22;11865;45.394;10.978;2023-04-01T00:17:48;9.10;99.90
23385;DHT22;11865;45.394;10.978;2023-04-01T00:20:16;9.10;99.90
23385;DHT22;11865;45.394;10.978;2023-04-01T00:22:44;9.10;99.90
23385;DHT22;11865;45.394;10.978;2023-04-01T00:25:11;9.10;99.90
23385;DHT22;11865;45.394;10.978;2023-04-01T00:27:39;9.10;99.90
23385;DHT22;11865;45.394;10.978;2023-04-01T00:30:08;9.30;99.90
23385;DHT22;11865;45.394;10.978;2023-04-01T00:32:35;9.40;99.90
23385;DHT22;11865;45.394;10.978;2023-04-01T00:35:04;9.30;99.90
23385;DHT22;11865;45.394;10.978;2023-04-01T00:37:35;9.30;99.90
23385;DHT22;11865;45.394;10.978;2023-04-01T00:40:05;9.30;99.90
23385;DHT22;11865;45.394;10.978;2023-04-01T00:42:33;9.10;99.90
23385;DHT22;11865;45.394;10.978;2023-04-01T00:45:23;8.90;99.90
23385;DHT22;11865;45.394;10.978;2023-04-01T00:47:52;8.90;99.90
23385;DHT22;11865;45.394;10.978;2023-04-01T00:50:22;8.90;99.90
23385;DHT22;11865;45.394;10.978;2023-04-01T00:52:51;9.00;99.90
23385;DHT22;11865;45.394;10.978;2023-04-01T00:55:21;8.90;99.90
23385;DHT22;11865;45.394;10.978;2023-04-01T00:57:49;8.70;99.90
23385;DHT22;11865;45.394;10.978;2023-04-01T01:00:19;8.50;99.90
23385;DHT22;11865;45.394;10.978;2023-04-01T01:02:46;8.70;99.90
23385;DHT22;11865;45.394;10.978;2023-04-01T01:05:16;8.90;99.90
23385;DHT22;11865;45.394;10.978;2023-04-01T01:10:31;9.20;99.90
23385;DHT22;11865;45.394;10.978;2023-04-01T01:13:17;9.20;99.90
23385;DHT22;11865;45.394;10.978;2023-04-01T01:15:59;9.20;99.90
23385;DHT22;11865;45.394;10.978;2023-04-01T01:24:20;9.00;99.90
23385;DHT22;11865;45.394;10.978;2023-04-01T01:38:00;8.20;99.90
23385;DHT22;11865;45.394;10.978;2023-04-01T01:40:29;8.10;99.90
23385;DHT22;11865;45.394;10.978;2023-04-01T01:43:02;8.20;99.90
23385;DHT22;11865;45.394;10.978;2023-04-01T01:45:34;8.50;99.90
23385;DHT22;11865;45.394;10.978;2023-04-01T01:48:04;8.60;99.90
23385;DHT22;11865;45.394;10.978;2023-04-01T01:50:33;8.60;99.90
23385;DHT22;11865;45.394;10.978;2023-04-01T01:53:08;8.70;99.90
23385;DHT22;11865;45.394;10.978;2023-04-01T01:55:38;8.80;99.90
23385;DHT22;11865;45.394;10.978;2023-04-01T02:00:42;8.80;99.90
23385;DHT22;11865;45.394;10.978;2023-04-01T02:03:12;8.90;99.90
23385;DHT22;11865;45.394;10.978;2023-04-01T02:05:40;8.80;99.90
23385;DHT22;11865;45.394;10.978;2023-04-01T02:08:19;8.70;99.90
23385;DHT22;11865;45.394;10.978;2023-04-01T02:10:58;8.80;99.90
23385;DHT22;11865;45.394;10.978;2023-04-01T02:13:48;8.80;99.90
23385;DHT22;11865;45.394;10.978;2023-04-01T02:16:25;8.80;99.90
23385;DHT22;11865;45.394;10.978;2023-04-01T02:18:56;8.80;99.90
23385;DHT22;11865;45.394;10.978;2023-04-01T02:21:29;8.80;99.90
23385;DHT22;11865;45.394;10.978;2023-04-01T02:23:59;8.70;99.90
23385;DHT22;11865;45.394;10.978;2023-04-01T02:26:27;8.40;99.90
23385;DHT22;11865;45.394;10.978;2023-04-01T02:28:56;8.30;99.90
23385;DHT22;11865;45.394;10.978;2023-04-01T02:31:25;8.40;99.90
23385;DHT22;11865;45.394;10.978;2023-04-01T02:33:53;8.30;99.90
23385;DHT22;11865;45.394;10.978;2023-04-01T02:36:21;7.90;99.90
23385;DHT22;11865;45.394;10.978;2023-04-01T02:38:49;7.80;99.90
23385;DHT22;11865;45.394;10.978;2023-04-01T02:41:18;7.80;99.90
23385;DHT22;11865;45.394;10.978;2023-04-01T02:43:46;7.90;99.90
23385;DHT22;11865;45.394;10.978;2023-04-01T02:46:14;7.90;99.90
23385;DHT22;11865;45.394;10.978;2023-04-01T02:48:41;7.60;99.90
23385;DHT22;11865;45.394;10.978;2023-04-01T02:51:09;7.40;99.90
23385;DHT22;11865;45.394;10.978;2023-04-01T02:53:36;7.20;99.90
23385;DHT22;11865;45.394;10.978;2023-04-01T02:56:04;7.40;99.90
23385;DHT22;11865;45.394;10.978;2023-04-01T02:58:32;7.60;99.90
23385;DHT22;11865;45.394;10.978;2023-04-01T03:00:59;7.90;99.90
23385;DHT22;11865;45.394;10.978;2023-04-01T03:03:27;8.10;99.90
23385;DHT22;11865;45.394;10.978;2023-04-01T03:05:54;8.30;99.90
23385;DHT22;11865;45.394;10.978;2023-04-01T03:08:27;8.40;99.90
23385;DHT22;11865;45.394;10.978;2023-04-01T03:10:54;8.20;99.90
23385;DHT22;11865;45.394;10.978;2023-04-01T03:13:22;7.80;99.90
23385;DHT22;11865;45.394;10.978;2023-04-01T03:15:49;7.70;99.90
23385;DHT22;11865;45.394;10.978;2023-04-01T03:18:17;7.60;99.90
23385;DHT22;11865;45.394;10.978;2023-04-01T03:20:44;7.50;99.90
23385;DHT22;11865;45.394;10.978;2023-04-01T03:23:12;7.40;99.90
23385;DHT22;11865;45.394;10.978;2023-04-01T03:25:40;7.40;99.90
23385;DHT22;11865;45.394;10.978;2023-04-01T03:28:08;7.40;99.90
23385;DHT22;11865;45.394;10.978;2023-04-01T03:30:36;7.30;99.90
23385;DHT22;11865;45.394;10.978;2023-04-01T03:33:04;7.20;99.90
23385;DHT22;11865;45.394;10.978;2023-04-01T03:35:32;7.30;99.90
23385;DHT22;11865;45.394;10.978;2023-04-01T03:38:00;7.40;99.90
23385;DHT22;11865;45.394;10.978;2023-04-01T03:40:28;7.60;99.90
23385;DHT22;11865;45.394;10.978;2023-04-01T03:42:55;7.80;99.90
23385;DHT22;11865;45.394;10.978;2023-04-01T03:45:23;7.70;99.90
23385;DHT22;11865;45.394;10.978;2023-04-01T03:47:51;7.40;99.90
23385;DHT22;11865;45.394;10.978;2023-04-01T03:50:19;7.30;99.90
23385;DHT22;11865;45.394;10.978;2023-04-01T03:52:46;7.20;99.90
23385;DHT22;11865;45.394;10.978;2023-04-01T03:55:14;7.30;99.90
23385;DHT22;11865;45.394;10.978;2023-04-01T03:57:42;7.40;99.90
23385;DHT22;11865;45.394;10.978;2023-04-01T04:00:17;7.20;99.90
23385;DHT22;11865;45.394;10.978;2023-04-01T04:02:48;7.10;99.90
23385;DHT22;11865;45.394;10.978;2023-04-01T04:05:21;7.20;99.90
23385;DHT22;11865;45.394;10.978;2023-04-01T04:07:48;7.00;99.90
23385;DHT22;11865;45.394;10.978;2023-04-01T04:10:16;6.90;99.90
23385;DHT22;11865;45.394;10.978;2023-04-01T04:12:44;6.90;99.90
23385;DHT22;11865;45.394;10.978;2023-04-01T04:15:12;7.20;99.90
23385;DHT22;11865;45.394;10.978;2023-04-01T04:17:40;7.20;99.90
23385;DHT22;11865;45.394;10.978;2023-04-01T04:20:08;7.60;99.90
23385;DHT22;11865;45.394;10.978;2023-04-01T04:22:36;7.90;99.90
23385;DHT22;11865;45.394;10.978;2023-04-01T04:25:06;8.00;99.90
23385;DHT22;11865;45.394;10.978;2023-04-01T04:27:35;8.10;99.90
23385;DHT22;11865;45.394;10.978;2023-04-01T04:30:08;8.20;99.90
23385;DHT22;11865;45.394;10.978;2023-04-01T04:32:36;8.20;99.90
23385;DHT22;11865;45.394;10.978;2023-04-01T04:35:05;8.20;99.90
23385;DHT22;11865;45.394;10.978;2023-04-01T04:37:34;8.20;99.90
23385;DHT22;11865;45.394;10.978;2023-04-01T04:40:02;8.20;99.90
23385;DHT22;11865;45.394;10.978;2023-04-01T04:42:30;8.20;99.90
23385;DHT22;11865;45.394;10.978;2023-04-01T04:45:04;8.20;99.90
23385;DHT22;11865;45.394;10.978;2023-04-01T04:47:32;8.20;99.90
23385;DHT22;11865;45.394;10.978;2023-04-01T04:49:59;8.20;99.90
23385;DHT22;11865;45.394;10.978;2023-04-01T04:52:27;8.10;99.90
23385;DHT22;11865;45.394;10.978;2023-04-01T04:54:55;8.00;99.90
23385;DHT22;11865;45.394;10.978;2023-04-01T04:57:22;8.10;99.90
23385;DHT22;11865;45.394;10.978;2023-04-01T04:59:54;8.10;99.90
23385;DHT22;11865;45.394;10.978;2023-04-01T05:02:42;7.80;99.90
23385;DHT22;11865;45.394;10.978;2023-04-01T05:05:09;7.70;99.90
23385;DHT22;11865;45.394;10.978;2023-04-01T05:07:37;7.70;99.90
23385;DHT22;11865;45.394;10.978;2023-04-01T05:10:05;7.70;99.90
23385;DHT22;11865;45.394;10.978;2023-04-01T05:12:33;7.80;99.90
23385;DHT22;11865;45.394;10.978;2023-04-01T05:15:06;7.90;99.90
23385;DHT22;11865;45.394;10.978;2023-04-01T05:17:34;8.10;99.90
23385;DHT22;11865;45.394;10.978;2023-04-01T05:20:03;8.20;99.90
23385;DHT22;11865;45.394;10.978;2023-04-01T05:22:31;8.30;99.90
23385;DHT22;11865;45.394;10.978;2023-04-01T05:24:58;8.20;99.90
23385;DHT22;11865;45.394;10.978;2023-04-01T05:27:27;8.10;99.90
23385;DHT22;11865;45.394;10.978;2023-04-01T05:29:55;8.10;99.90
23385;DHT22;11865;45.394;10.978;2023-04-01T05:32:46;7.90;99.90
23385;DHT22;11865;45.394;10.978;2023-04-01T05:35:13;8.00;99.90
23385;DHT22;11865;45.394;10.978;2023-04-01T05:37:41;7.90;99.90
23385;DHT22;11865;45.394;10.978;2023-04-01T05:40:09;7.80;99.90
23385;DHT22;11865;45.394;10.978;2023-04-01T05:42:36;7.80;99.90
23385;DHT22;11865;45.394;10.978;2023-04-01T05:45:06;7.90;99.90
23385;DHT22;11865;45.394;10.978;2023-04-01T05:47:48;8.00;99.90
23385;DHT22;11865;45.394;10.978;2023-04-01T05:50:17;8.00;99.90
23385;DHT22;11865;45.394;10.978;2023-04-01T05:52:45;7.90;99.90
23385;DHT22;11865;45.394;10.978;2023-04-01T05:55:12;7.90;99.90
23385;DHT22;11865;45.394;10.978;2023-04-01T05:57:40;7.90;99.90
23385;DHT22;11865;45.394;10.978;2023-04-01T06:00:09;8.10;99.90
23385;DHT22;11865;45.394;10.978;2023-04-01T06:02:40;8.40;99.90
23385;DHT22;11865;45.394;10.978;2023-04-01T06:05:14;9.00;99.90
23385;DHT22;11865;45.394;10.978;2023-04-01T06:07:43;9.60;99.90
23385;DHT22;11865;45.394;10.978;2023-04-01T06:10:16;9.90;99.90
23385;DHT22;11865;45.394;10.978;2023-04-01T06:13:06;10.90;99.90
23385;DHT22;11865;45.394;10.978;2023-04-01T06:15:57;11.30;99.90
23385;DHT22;11865;45.394;10.978;2023-04-01T06:18:36;10.70;99.90
23385;DHT22;11865;45.394;10.978;2023-04-01T06:30:02;15.10;99.90
23385;DHT22;11865;45.394;10.978;2023-04-01T06:35:20;15.80;99.70
23385;DHT22;11865;45.394;10.978;2023-04-01T06:43:49;16.00;98.90
23385;DHT22;11865;45.394;10.978;2023-04-01T06:56:37;16.60;99.60
23385;DHT22;11865;45.394;10.978;2023-04-01T06:59:17;16.80;98.20
23385;DHT22;11865;45.394;10.978;2023-04-01T07:01:45;16.80;98.00
23385;DHT22;11865;45.394;10.978;2023-04-01T07:07:01;15.90;99.60
23385;DHT22;11865;45.394;10.978;2023-04-01T07:09:41;16.30;99.90
23385;DHT22;11865;45.394;10.978;2023-04-01T07:12:34;16.90;99.40
23385;DHT22;11865;45.394;10.978;2023-04-01T07:15:26;17.00;98.60
23385;DHT22;11865;45.394;10.978;2023-04-01T07:18:03;16.40;98.90
23385;DHT22;11865;45.394;10.978;2023-04-01T07:20:36;15.60;99.90
23385;DHT22;11865;45.394;10.978;2023-04-01T07:23:07;15.70;99.90
23385;DHT22;11865;45.394;10.978;2023-04-01T07:25:55;16.30;99.90
23385;DHT22;11865;45.394;10.978;2023-04-01T07:28:32;16.80;99.10
23385;DHT22;11865;45.394;10.978;2023-04-01T07:35:00;19.10;94.60
23385;DHT22;11865;45.394;10.978;2023-04-01T07:37:46;19.80;94.40
23385;DHT22;11865;45.394;10.978;2023-04-01T07:48:56;14.20;99.90
23385;DHT22;11865;45.394;10.978;2023-04-01T07:57:18;13.70;99.90
23385;DHT22;11865;45.394;10.978;2023-04-01T08:04:23;13.90;99.90
23385;DHT22;11865;45.394;10.978;2023-04-01T08:07:10;13.90;99.90
23385;DHT22;11865;45.394;10.978;2023-04-01T08:19:28;13.70;99.90
23385;DHT22;11865;45.394;10.978;2023-04-01T08:22:03;13.90;99.90
23385;DHT22;11865;45.394;10.978;2023-04-01T08:24:46;14.20;99.90
23385;DHT22;11865;45.394;10.978;2023-04-01T08:27:35;14.10;99.90
23385;DHT22;11865;45.394;10.978;2023-04-01T08:30:28;14.20;99.90
23385;DHT22;11865;45.394;10.978;2023-04-01T08:33:09;14.40;99.90
23385;DHT22;11865;45.394;10.978;2023-04-01T08:38:41;14.10;99.90
23385;DHT22;11865;45.394;10.978;2023-04-01T08:47:27;14.40;99.90
23385;DHT22;11865;45.394;10.978;2023-04-01T08:53:07;14.50;99.90
23385;DHT22;11865;45.394;10.978;2023-04-01T09:01:42;14.60;99.90
23385;DHT22;11865;45.394;10.978;2023-04-01T09:12:30;14.90;99.90
23385;DHT22;11865;45.394;10.978;2023-04-01T09:15:06;15.10;99.90
23385;DHT22;11865;45.394;10.978;2023-04-01T09:20:58;14.80;99.90
23385;DHT22;11865;45.394;10.978;2023-04-01T09:24:01;15.00;99.90
23385;DHT22;11865;45.394;10.978;2023-04-01T09:32:22;15.40;99.90
23385;DHT22;11865;45.394;10.978;2023-04-01T09:35:38;15.50;99.90
23385;DHT22;11865;45.394;10.978;2023-04-01T09:38:32;15.50;99.90
23385;DHT22;11865;45.394;10.978;2023-04-01T09:41:27;15.60;99.90
23385;DHT22;11865;45.394;10.978;2023-04-01T09:44:23;15.40;99.90
23385;DHT22;11865;45.394;10.978;2023-04-01T10:04:58;15.50;99.90
23385;DHT22;11865;45.394;10.978;2023-04-01T10:15:34;15.90;93.30
23385;DHT22;11865;45.394;10.978;2023-04-01T10:44:40;16.70;92.90
23385;DHT22;11865;45.394;10.978;2023-04-01T11:17:29;17.50;88.20
23385;DHT22;11865;45.394;10.978;2023-04-01T11:23:32;17.20;84.90
23385;DHT22;11865;45.394;10.978;2023-04-01T11:26:07;17.10;83.10
23385;DHT22;11865;45.394;10.978;2023-04-01T11:44:08;17.80;84.50
23385;DHT22;11865;45.394;10.978;2023-04-01T11:47:20;18.00;85.10
23385;DHT22;11865;45.394;10.978;2023-04-01T11:53:14;17.90;83.00
23385;DHT22;11865;45.394;10.978;2023-04-01T11:55:54;17.80;83.00
23385;DHT22;11865;45.394;10.978;2023-04-01T12:01:17;17.90;86.00
23385;DHT22;11865;45.394;10.978;2023-04-01T12:03:58;18.20;88.80
23385;DHT22;11865;45.394;10.978;2023-04-01T12:06:32;18.40;86.80
23385;DHT22;11865;45.394;10.978;2023-04-01T12:14:54;18.40;87.80
23385;DHT22;11865;45.394;10.978;2023-04-01T12:26:04;18.50;81.80
23385;DHT22;11865;45.394;10.978;2023-04-01T12:29:04;18.80;82.90
23385;DHT22;11865;45.394;10.978;2023-04-01T12:31:46;18.70;78.20
23385;DHT22;11865;45.394;10.978;2023-04-01T13:02:20;19.50;70.20
23385;DHT22;11865;45.394;10.978;2023-04-01T13:21:35;19.80;71.00
23385;DHT22;11865;45.394;10.978;2023-04-01T13:24:25;19.80;71.10
23385;DHT22;11865;45.394;10.978;2023-04-01T13:27:30;20.00;69.60
23385;DHT22;11865;45.394;10.978;2023-04-01T13:38:32;20.10;62.40
23385;DHT22;11865;45.394;10.978;2023-04-01T13:41:24;20.40;64.80
23385;DHT22;11865;45.394;10.978;2023-04-01T13:44:15;20.20;61.90
23385;DHT22;11865;45.394;10.978;2023-04-01T13:52:27;20.10;62.80
23385;DHT22;11865;45.394;10.978;2023-04-01T14:06:05;20.00;59.20
23385;DHT22;11865;45.394;10.978;2023-04-01T14:16:58;20.30;59.30
23385;DHT22;11865;45.394;10.978;2023-04-01T14:27:37;20.50;59.90
23385;DHT22;11865;45.394;10.978;2023-04-01T14:30:27;20.60;54.00
23385;DHT22;11865;45.394;10.978;2023-04-01T14:36:07;21.00;57.20
23385;DHT22;11865;45.394;10.978;2023-04-01T14:38:42;21.10;57.20
23385;DHT22;11865;45.394;10.978;2023-04-01T14:52:13;21.60;54.10
23385;DHT22;11865;45.394;10.978;2023-04-01T14:54:46;21.60;54.60
23385;DHT22;11865;45.394;10.978;2023-04-01T14:57:23;21.80;56.00
23385;DHT22;11865;45.394;10.978;2023-04-01T15:08:25;21.60;53.30
23385;DHT22;11865;45.394;10.978;2023-04-01T15:13:50;21.10;57.10
23385;DHT22;11865;45.394;10.978;2023-04-01T15:22:51;20.80;57.50
23385;DHT22;11865;45.394;10.978;2023-04-01T15:45:51;20.50;60.90
23385;DHT22;11865;45.394;10.978;2023-04-01T15:48:43;20.70;59.10
23385;DHT22;11865;45.394;10.978;2023-04-01T16:02:29;21.10;56.00
23385;DHT22;11865;45.394;10.978;2023-04-01T16:19:31;20.60;54.40
23385;DHT22;11865;45.394;10.978;2023-04-01T16:22:13;20.50;54.50
23385;DHT22;11865;45.394;10.978;2023-04-01T16:24:54;20.50;54.60
23385;DHT22;11865;45.394;10.978;2023-04-01T16:27:36;20.50;54.60
23385;DHT22;11865;45.394;10.978;2023-04-01T16:36:24;20.40;54.40
23385;DHT22;11865;45.394;10.978;2023-04-01T16:39:22;20.30;54.70
23385;DHT22;11865;45.394;10.978;2023-04-01T16:47:39;20.10;55.70
23385;DHT22;11865;45.394;10.978;2023-04-01T16:50:22;20.00;55.50
23385;DHT22;11865;45.394;10.978;2023-04-01T16:53:17;19.90;57.50
23385;DHT22;11865;45.394;10.978;2023-04-01T16:56:27;19.70;59.00
23385;DHT22;11865;45.394;10.978;2023-04-01T17:01:44;19.30;58.60
23385;DHT22;11865;45.394;10.978;2023-04-01T17:04:21;19.20;58.80
23385;DHT22;11865;45.394;10.978;2023-04-01T17:12:40;18.90;62.50
23385;DHT22;11865;45.394;10.978;2023-04-01T17:21:14;18.60;61.90
23385;DHT22;11865;45.394;10.978;2023-04-01T17:24:04;18.60;63.00
23385;DHT22;11865;45.394;10.978;2023-04-01T17:26:45;18.40;64.10
23385;DHT22;11865;45.394;10.978;2023-04-01T17:29:23;18.20;66.80
23385;DHT22;11865;45.394;10.978;2023-04-01T17:35:06;17.80;67.70
23385;DHT22;11865;45.394;10.978;2023-04-01T17:41:24;17.60;70.00
23385;DHT22;11865;45.394;10.978;2023-04-01T17:49:23;17.30;73.40
23385;DHT22;11865;45.394;10.978;2023-04-01T17:58:14;17.10;76.10
23385;DHT22;11865;45.394;10.978;2023-04-01T18:20:43;16.20;81.20
23385;DHT22;11865;45.394;10.978;2023-04-01T18:25:47;15.60;90.00
23385;DHT22;11865;45.394;10.978;2023-04-01T18:30:59;14.80;92.00
23385;DHT22;11865;45.394;10.978;2023-04-01T18:33:59;15.30;86.20
23385;DHT22;11865;45.394;10.978;2023-04-01T18:39:35;15.60;84.70
23385;DHT22;11865;45.394;10.978;2023-04-01T18:51:01;15.70;85.10
23385;DHT22;11865;45.394;10.978;2023-04-01T18:53:50;15.50;88.50
23385;DHT22;11865;45.394;10.978;2023-04-01T19:01:55;14.00;95.00
23385;DHT22;11865;45.394;10.978;2023-04-01T19:04:30;14.20;93.50
23385;DHT22;11865;45.394;10.978;2023-04-01T19:07:19;13.90;93.20
23385;DHT22;11865;45.394;10.978;2023-04-01T19:09:49;13.50;95.40
23385;DHT22;11865;45.394;10.978;2023-04-01T19:20:32;13.20;94.90
23385;DHT22;11865;45.394;10.978;2023-04-01T19:26:00;12.90;97.80
23385;DHT22;11865;45.394;10.978;2023-04-01T19:28:46;12.80;98.00
23385;DHT22;11865;45.394;10.978;2023-04-01T19:36:41;12.40;99.10
23385;DHT22;11865;45.394;10.978;2023-04-01T19:41:54;13.30;92.70
23385;DHT22;11865;45.394;10.978;2023-04-01T19:44:31;13.70;91.40
23385;DHT22;11865;45.394;10.978;2023-04-01T19:52:45;14.30;90.40
23385;DHT22;11865;45.394;10.978;2023-04-01T20:00:29;14.40;90.30
23385;DHT22;11865;45.394;10.978;2023-04-01T20:11:21;14.30;93.70
23385;DHT22;11865;45.394;10.978;2023-04-01T20:16:59;14.40;95.00
23385;DHT22;11865;45.394;10.978;2023-04-01T20:19:39;14.40;95.50
23385;DHT22;11865;45.394;10.978;2023-04-01T20:25:16;14.40;97.50
23385;DHT22;11865;45.394;10.978;2023-04-01T20:27:55;14.40;97.60
23385;DHT22;11865;45.394;10.978;2023-04-01T20:30:59;14.40;98.00
23385;DHT22;11865;45.394;10.978;2023-04-01T20:33:51;14.50;97.50
23385;DHT22;11865;45.394;10.978;2023-04-01T20:54:14;14.20;93.20
23385;DHT22;11865;45.394;10.978;2023-04-01T20:57:05;14.20;93.10
23385;DHT22;11865;45.394;10.978;2023-04-01T21:14:55;14.40;93.70
23385;DHT22;11865;45.394;10.978;2023-04-01T21:17:33;14.40;94.00
23385;DHT22;11865;45.394;10.978;2023-04-01T21:20:19;14.30;94.70
23385;DHT22;11865;45.394;10.978;2023-04-01T21:23:31;14.20;95.10
23385;DHT22;11865;45.394;10.978;2023-04-01T21:54:35;14.30;99.50
23385;DHT22;11865;45.394;10.978;2023-04-01T22:05:21;14.20;99.70
23385;DHT22;11865;45.394;10.978;2023-04-01T22:13:57;14.50;99.50
23385;DHT22;11865;45.394;10.978;2023-04-01T22:16:50;14.60;99.40
23385;DHT22;11865;45.394;10.978;2023-04-01T22:22:21;14.80;99.00
23385;DHT22;11865;45.394;10.978;2023-04-01T22:25:02;15.00;98.80
23385;DHT22;11865;45.394;10.978;2023-04-01T22:27:52;15.00;98.70
23385;DHT22;11865;45.394;10.978;2023-04-01T22:33:08;15.10;98.60
23385;DHT22;11865;45.394;10.978;2023-04-01T22:38:55;15.10;98.70
23385;DHT22;11865;45.394;10.978;2023-04-01T22:43:56;15.00;98.80
23385;DHT22;11865;45.394;10.978;2023-04-01T22:52:09;14.10;99.90
23385;DHT22;11865;45.394;10.978;2023-04-01T22:54:45;13.70;99.90
23385;DHT22;11865;45.394;10.978;2023-04-01T22:57:40;13.40;99.90
23385;DHT22;11865;45.394;10.978;2023-04-01T23:00:13;13.30;99.90
23385;DHT22;11865;45.394;10.978;2023-04-01T23:02:49;13.20;99.90
23385;DHT22;11865;45.394;10.978;2023-04-01T23:05:19;13.20;99.90
23385;DHT22;11865;45.394;10.978;2023-04-01T23:13:02;13.20;99.90
23385;DHT22;11865;45.394;10.978;2023-04-01T23:15:33;13.10;99.90
23385;DHT22;11865;45.394;10.978;2023-04-01T23:18:11;13.00;99.90
23385;DHT22;11865;45.394;10.978;2023-04-01T23:25:59;12.90;99.90
23385;DHT22;11865;45.394;10.978;2023-04-01T23:31:30;12.90;99.90
23385;DHT22;11865;45.394;10.978;2023-04-01T23:36:46;12.80;99.90
23385;DHT22;11865;45.394;10.978;2023-04-01T23:39:36;12.80;99.90
23385;DHT22;11865;45.394;10.978;2023-04-01T23:44:41;12.70;99.90
23385;DHT22;11865;45.394;10.978;2023-04-01T23:47:14;12.60;99.90
23385;DHT22;11865;45.394;10.978;2023-04-01T23:49:46;12.60;99.90
23385;DHT22;11865;45.394;10.978;2023-04-01T23:52:29;12.50;99.90
23385;DHT22;11865;45.394;10.978;2023-04-01T23:55:26;12.60;99.90
